Airfield :
LOGIN :

Register | Disclaimer

   EN    FR    IT 

 










Legend :    VFR   Marginal VFR   IFR   Intensive IFR   Very Intensive IFR
Visi :
Ceiling :
>= 8 km
>= 3000ft
5 to 8 km
1000 to 3000 ft
1500m to 5 km
500 to 1000 ft
800 to 1500m
200 to 500 ft
< 800m
< 200 ft
Symbols :   Thunderstorms  Fog  Heavy snow  Heavy precipitations  Wind > 20 kt
SIGMETs :     Misc.  Thunderstorms  Icing  Turbulence  Mountain Waves  Volcanic Ashes






- Airport Elevation : 789 ft
- IATA code : BZO


LIPB - Bolzano

CURRENT METAR :
  • 162150Z VRB03KT 9999 FEW090 18/15 Q1013

EXPIRED METARs :
  • 162050Z VRB02KT 9999 FEW090 19/14 Q1013
  • 161950Z 15003KT 110V200 9999 FEW100 22/13 Q1012
  • 161850Z 17003KT 9999 FEW100 23/13 Q1011
  • 161750Z 16005KT 120V200 9999 SCT100 24/13 Q1010

TAF TAF LIPB
Valid from the 16 at 18:00 until the 17 at 18:00 UTC


161700Z 1618/1718 VRB05KT 9999 SCT040
TEMPO 1712/1718 4000 TSRA



MET'MAP, your aeronautical weather chart ! - Copyright ORBIFLY December 2007 - Disclaimer

ORBIFLY MET'MAP TEAM :

Programming & Development : Alexandra Zaïnal
Original concept : Baudouin d'Aumeries
Technical & hardware support : Manuel Goepfert
Assistance : Marc-Olivier Méhu




SOURCES & CREDITS :

   NOAA